createdAt,value
2019-02-14T00:06:49.008Z,68.40
2019-02-14T00:09:17.433Z,68.47
2019-02-14T00:11:45.837Z,68.56
2019-02-14T00:14:14.235Z,68.61
2019-02-14T00:16:42.660Z,68.62
2019-02-14T00:19:11.048Z,68.69
2019-02-14T00:24:26.915Z,68.67
2019-02-14T00:26:55.311Z,68.62
2019-02-14T00:29:23.705Z,68.56
2019-02-14T00:31:52.137Z,68.51
2019-02-14T00:34:20.533Z,68.49
2019-02-14T00:36:48.933Z,68.51
2019-02-14T00:39:17.389Z,68.48
2019-02-14T00:41:45.790Z,68.54
2019-02-14T00:44:14.194Z,68.56
2019-02-14T00:49:16.266Z,68.55
2019-02-14T00:51:44.698Z,68.62
2019-02-14T00:54:32.287Z,68.64
2019-02-14T00:57:00.716Z,68.60
2019-02-14T00:59:29.112Z,68.52
2019-02-14T01:01:57.579Z,68.64
2019-02-14T01:07:00.304Z,68.87
2019-02-14T01:09:28.735Z,68.79
2019-02-14T01:11:57.133Z,68.71
2019-02-14T01:14:25.528Z,68.70
2019-02-14T01:17:13.466Z,68.75
2019-02-14T01:19:41.860Z,68.88
2019-02-14T01:22:22.494Z,68.95
2019-02-14T01:24:50.891Z,69.06
2019-02-14T01:27:19.286Z,69.16
2019-02-14T01:29:47.716Z,69.22
2019-02-14T01:32:35.521Z,69.32
2019-02-14T01:35:43.854Z,69.36
2019-02-14T01:38:12.256Z,69.29
2019-02-14T01:40:40.651Z,69.17
2019-02-14T01:45:42.548Z,69.29
2019-02-14T01:48:10.946Z,69.30
2019-02-14T01:50:39.372Z,69.25
2019-02-14T01:53:07.772Z,69.18
2019-02-14T01:55:55.678Z,69.17
2019-02-14T01:58:24.065Z,69.11
2019-02-14T02:00:52.570Z,69.06
2019-02-14T02:03:20.994Z,69.03
2019-02-14T02:06:08.586Z,68.97
2019-02-14T02:08:37.002Z,69.02
2019-02-14T02:11:45.313Z,68.99
2019-02-14T02:16:47.607Z,69.01
2019-02-14T02:22:10.728Z,69.17
2019-02-14T02:24:39.118Z,69.24
2019-02-14T02:27:07.522Z,69.38
2019-02-14T02:32:10.292Z,69.76
2019-02-14T02:34:38.725Z,69.82
2019-02-14T02:37:26.368Z,69.69
2019-02-14T02:42:48.430Z,69.50
2019-02-14T02:45:36.047Z,69.57
2019-02-14T02:48:04.466Z,69.66
2019-02-14T02:50:32.860Z,69.65
2019-02-14T02:55:34.840Z,69.63
2019-02-14T02:58:03.235Z,69.69
2019-02-14T03:00:31.659Z,69.70
2019-02-14T03:03:00.060Z,69.68
2019-02-14T03:05:28.465Z,69.64
2019-02-14T03:10:31.306Z,69.79
2019-02-14T03:15:33.832Z,69.71
2019-02-14T03:18:02.237Z,69.65
2019-02-14T03:20:30.686Z,69.59
2019-02-14T03:22:59.088Z,69.54
2019-02-14T03:25:46.885Z,69.57
2019-02-14T03:28:27.765Z,69.57
2019-02-14T03:30:56.183Z,69.55
2019-02-14T03:33:27.030Z,69.56
2019-02-14T03:35:55.420Z,69.57
2019-02-14T03:38:23.869Z,69.54
2019-02-14T03:40:52.244Z,69.49
2019-02-14T03:43:20.647Z,69.50
2019-02-14T03:45:49.107Z,69.45
2019-02-14T03:48:17.501Z,69.46
2019-02-14T03:50:45.886Z,69.45
2019-02-14T03:53:14.310Z,69.41
2019-02-14T03:55:42.709Z,69.38
2019-02-14T03:58:30.639Z,69.34
2019-02-14T04:00:59.040Z,69.31
2019-02-14T04:03:27.440Z,69.21
2019-02-14T04:08:49.650Z,69.18
2019-02-14T04:11:18.063Z,69.26
2019-02-14T04:14:00.674Z,69.34
2019-02-14T04:16:16.600Z,69.33
2019-02-14T04:18:45.081Z,69.28
2019-02-14T04:21:13.483Z,69.32
2019-02-14T04:23:41.883Z,69.34
2019-02-14T04:26:10.346Z,69.34
2019-02-14T04:28:38.760Z,69.26
2019-02-14T04:31:19.349Z,69.12
2019-02-14T04:33:47.784Z,69.04
2019-02-14T04:36:16.185Z,68.98
2019-02-14T04:38:44.614Z,68.93
2019-02-14T04:41:13.016Z,68.91
2019-02-14T04:43:41.429Z,69.00
2019-02-14T04:48:44.353Z,68.97
2019-02-14T04:51:12.775Z,68.97
2019-02-14T04:53:41.167Z,69.02
2019-02-14T04:56:09.558Z,69.10
2019-02-14T04:58:38.045Z,69.17
2019-02-14T05:01:06.445Z,69.27
2019-02-14T05:03:34.824Z,69.32
2019-02-14T05:08:37.206Z,69.48
2019-02-14T05:13:39.489Z,69.63
2019-02-14T05:18:42.231Z,69.63
2019-02-14T05:23:44.572Z,69.55
2019-02-14T05:28:46.978Z,69.56
2019-02-14T05:31:16.954Z,69.58
2019-02-14T05:33:57.054Z,69.57
2019-02-14T05:36:25.478Z,69.54
2019-02-14T05:38:53.870Z,69.47
2019-02-14T05:41:22.256Z,69.48
2019-02-14T05:43:50.682Z,69.45
2019-02-14T05:46:19.077Z,69.45
2019-02-14T05:48:47.463Z,69.46
2019-02-14T05:53:50.290Z,69.48
2019-02-14T05:58:52.678Z,69.37
2019-02-14T06:04:08.519Z,69.46
2019-02-14T06:06:36.922Z,69.50
2019-02-14T06:09:45.355Z,69.52
2019-02-14T06:12:13.747Z,69.54
2019-02-14T06:14:42.162Z,69.45
2019-02-14T06:17:10.597Z,69.42
2019-02-14T06:19:39.034Z,69.41
2019-02-14T06:22:07.428Z,69.39
2019-02-14T06:24:35.854Z,69.42
2019-02-14T06:27:04.254Z,69.39
2019-02-14T06:29:32.771Z,69.32
2019-02-14T06:34:34.856Z,69.31
2019-02-14T06:37:09.459Z,69.37
2019-02-14T06:39:33.384Z,69.43
2019-02-14T06:42:01.779Z,69.44
2019-02-14T06:44:30.163Z,69.40
2019-02-14T06:54:45.412Z,69.41
2019-02-14T06:57:13.856Z,69.34
2019-02-14T07:05:53.214Z,69.24
2019-02-14T07:10:55.722Z,69.30
2019-02-14T07:15:58.521Z,69.42
2019-02-14T07:18:26.937Z,69.39
2019-02-14T07:20:55.405Z,69.32
2019-02-14T07:23:23.790Z,69.31
2019-02-14T07:25:52.202Z,69.28
2019-02-14T07:28:20.610Z,69.24
2019-02-14T07:30:49.005Z,69.22
2019-02-14T07:33:17.433Z,69.13
2019-02-14T07:35:45.848Z,68.99
2019-02-14T07:38:14.255Z,68.80
2019-02-14T07:40:42.764Z,68.67
2019-02-14T07:43:11.163Z,68.49
2019-02-14T07:45:41.360Z,68.39
2019-02-14T07:48:09.866Z,68.32
2019-02-14T07:50:38.258Z,68.16
2019-02-14T07:53:06.662Z,68.04
2019-02-14T07:55:35.182Z,68.08
2019-02-14T07:58:03.586Z,68.04
2019-02-14T08:00:32.059Z,68.07
2019-02-14T08:03:00.609Z,68.02
2019-02-14T08:05:29.074Z,68.01
2019-02-14T08:07:57.554Z,67.98
2019-02-14T08:10:26.008Z,67.90
2019-02-14T08:12:54.404Z,67.84
2019-02-14T08:15:22.802Z,67.83
2019-02-14T08:17:51.426Z,67.80
2019-02-14T08:20:20.949Z,67.76
2019-02-14T08:22:49.348Z,67.70
2019-02-14T08:25:18.029Z,67.61
2019-02-14T08:27:46.435Z,67.50
2019-02-14T08:30:16.818Z,67.32
2019-02-14T08:32:45.697Z,67.05
2019-02-14T08:35:14.247Z,66.82
2019-02-14T08:37:45.664Z,66.58
2019-02-14T08:40:19.112Z,66.40
2019-02-14T08:42:47.503Z,66.25
2019-02-14T08:45:15.906Z,66.11
2019-02-14T08:47:44.319Z,66.02
2019-02-14T08:50:12.788Z,65.89
2019-02-14T08:52:41.182Z,65.80
2019-02-14T08:55:10.617Z,65.69
2019-02-14T08:57:39.079Z,65.74
2019-02-14T09:00:12.796Z,65.73
2019-02-14T09:02:41.333Z,65.62
2019-02-14T09:05:10.396Z,65.54
2019-02-14T09:07:38.797Z,65.44
2019-02-14T09:10:10.465Z,65.45
2019-02-14T09:12:38.855Z,65.52
2019-02-14T09:15:10.201Z,65.43
2019-02-14T09:17:38.708Z,65.43
2019-02-14T09:20:18.237Z,65.53
2019-02-14T09:22:47.041Z,65.45
2019-02-14T09:25:15.505Z,65.55
2019-02-14T09:27:43.894Z,65.46
2019-02-14T09:30:13.967Z,65.28
2019-02-14T09:32:42.444Z,65.15
2019-02-14T09:35:11.285Z,64.88
2019-02-14T09:37:40.087Z,64.57
2019-02-14T09:40:13.682Z,64.40
2019-02-14T09:42:42.179Z,64.04
2019-02-14T09:45:12.630Z,63.87
2019-02-14T09:47:41.116Z,63.94
2019-02-14T09:50:11.896Z,63.85
2019-02-14T09:52:41.359Z,63.62
2019-02-14T09:55:11.588Z,63.49
2019-02-14T09:57:40.063Z,63.43
2019-02-14T10:00:19.173Z,63.50
2019-02-14T10:02:47.556Z,63.48
2019-02-14T10:05:16.298Z,63.45
2019-02-14T10:07:44.888Z,63.22
2019-02-14T10:10:21.713Z,62.84
2019-02-14T10:12:50.103Z,62.71
2019-02-14T10:15:18.501Z,62.62
2019-02-14T10:17:46.893Z,62.39
2019-02-14T10:20:18.926Z,62.27
2019-02-14T10:22:47.372Z,62.11
2019-02-14T10:25:15.776Z,61.80
2019-02-14T10:27:44.512Z,61.59
2019-02-14T10:30:20.708Z,61.47
2019-02-14T10:32:49.235Z,61.29
2019-02-14T10:35:17.633Z,61.36
2019-02-14T10:37:46.026Z,61.36
2019-02-14T10:40:16.440Z,61.27
2019-02-14T10:42:44.898Z,61.23
2019-02-14T10:45:15.700Z,61.30
2019-02-14T10:47:44.161Z,61.10
2019-02-14T10:50:12.894Z,61.05
2019-02-14T10:52:41.288Z,61.03
2019-02-14T10:55:12.671Z,60.74
2019-02-14T10:57:41.069Z,60.39
2019-02-14T11:00:19.255Z,60.04
2019-02-14T11:02:47.985Z,59.78
2019-02-14T11:05:17.615Z,59.63
2019-02-14T11:07:46.201Z,59.47
2019-02-14T11:10:15.538Z,59.21
2019-02-14T11:12:44.238Z,59.01
2019-02-14T11:15:20.968Z,58.82
2019-02-14T11:17:49.533Z,58.68
2019-02-14T11:20:18.280Z,58.40
2019-02-14T11:22:48.868Z,58.35
2019-02-14T11:25:38.224Z,58.30
2019-02-14T11:28:07.083Z,57.95
2019-02-14T11:30:35.483Z,57.69
2019-02-14T11:33:03.871Z,57.57
2019-02-14T11:35:32.380Z,57.31
2019-02-14T11:38:00.767Z,57.21
2019-02-14T11:40:29.162Z,56.82
2019-02-14T11:42:57.592Z,56.50
2019-02-14T11:45:26.429Z,56.44
2019-02-14T11:47:54.828Z,56.24
2019-02-14T11:50:23.248Z,55.93
2019-02-14T11:52:51.639Z,55.81
2019-02-14T11:55:20.175Z,55.45
2019-02-14T11:57:48.670Z,55.09
2019-02-14T12:00:24.624Z,55.14
2019-02-14T12:02:56.058Z,55.24
2019-02-14T12:05:23.341Z,55.15
2019-02-14T12:07:51.759Z,54.98
2019-02-14T12:10:20.193Z,54.49
2019-02-14T12:12:48.595Z,54.32
2019-02-14T12:15:16.993Z,53.98
2019-02-14T12:17:45.560Z,53.69
2019-02-14T12:20:16.910Z,53.42
2019-02-14T12:22:47.208Z,53.22
2019-02-14T12:25:24.042Z,53.09
2019-02-14T12:27:52.451Z,53.03
2019-02-14T12:30:20.919Z,52.80
2019-02-14T12:32:49.445Z,52.35
2019-02-14T12:35:17.847Z,52.26
2019-02-14T12:37:46.261Z,52.17
2019-02-14T12:40:15.027Z,51.99
2019-02-14T12:42:43.429Z,51.78
2019-02-14T12:45:20.498Z,51.40
2019-02-14T12:47:50.271Z,50.94
2019-02-14T12:50:18.676Z,50.70
2019-02-14T12:52:47.091Z,50.71
2019-02-14T12:55:15.489Z,50.71
2019-02-14T12:57:43.889Z,50.52
2019-02-14T13:00:23.447Z,50.13
2019-02-14T13:02:51.852Z,50.13
2019-02-14T13:05:20.253Z,50.07
2019-02-14T13:07:48.685Z,50.15
2019-02-14T13:10:18.322Z,50.24
2019-02-14T13:12:46.725Z,50.31
2019-02-14T13:15:26.128Z,50.26
2019-02-14T13:17:54.528Z,50.15
2019-02-14T13:20:22.998Z,50.05
2019-02-14T13:22:51.528Z,49.92
2019-02-14T13:25:19.938Z,49.74
2019-02-14T13:27:48.341Z,49.65
2019-02-14T13:30:19.647Z,49.46
2019-02-14T13:32:48.045Z,49.33
2019-02-14T13:35:16.444Z,49.45
2019-02-14T13:37:44.937Z,49.69
2019-02-14T13:40:13.474Z,49.52
2019-02-14T13:42:41.864Z,49.62
2019-02-14T13:45:16.144Z,49.33
2019-02-14T13:47:44.546Z,49.18
2019-02-14T13:50:15.742Z,49.09
2019-02-14T13:52:43.535Z,48.90
2019-02-14T13:55:12.011Z,49.03
2019-02-14T13:57:40.669Z,48.80
2019-02-14T14:00:22.370Z,48.61
2019-02-14T14:02:50.815Z,48.50
2019-02-14T14:05:19.308Z,48.52
2019-02-14T14:07:47.832Z,48.39
2019-02-14T14:10:16.241Z,48.25
2019-02-14T14:12:44.644Z,48.25
2019-02-14T14:15:13.621Z,48.29
2019-02-14T14:17:42.022Z,48.13
2019-02-14T14:20:10.624Z,47.92
2019-02-14T14:22:39.432Z,47.71
2019-02-14T14:25:12.527Z,47.58
2019-02-14T14:27:40.926Z,47.61
2019-02-14T14:30:11.948Z,47.51
2019-02-14T14:32:40.432Z,47.33
2019-02-14T14:35:11.043Z,47.20
2019-02-14T14:37:39.824Z,47.02
2019-02-14T14:40:15.789Z,46.92
2019-02-14T14:42:51.658Z,46.64
2019-02-14T14:45:37.893Z,46.34
2019-02-14T14:48:07.155Z,45.69
2019-02-14T14:50:35.556Z,45.17
2019-02-14T14:53:03.953Z,44.79
2019-02-14T14:55:32.378Z,44.80
2019-02-14T14:58:00.774Z,44.86
2019-02-14T15:00:29.193Z,44.72
2019-02-14T15:02:57.886Z,44.70
2019-02-14T15:05:26.341Z,44.83
2019-02-14T15:07:54.741Z,44.94
2019-02-14T15:10:23.175Z,45.20
2019-02-14T15:12:51.572Z,45.86
2019-02-14T15:15:19.969Z,46.47
2019-02-14T15:17:48.737Z,47.02
2019-02-14T15:20:17.135Z,47.22
2019-02-14T15:22:45.542Z,47.42
2019-02-14T15:25:14.164Z,47.88
2019-02-14T15:27:42.570Z,48.29
2019-02-14T15:30:10.975Z,48.35
2019-02-14T15:32:39.415Z,48.29
2019-02-14T15:35:08.949Z,48.56
2019-02-14T15:37:37.349Z,48.73
2019-02-14T15:40:09.466Z,48.77
2019-02-14T15:42:38.329Z,48.85
2019-02-14T15:45:07.841Z,48.94
2019-02-14T15:47:36.522Z,49.03
2019-02-14T15:50:08.871Z,49.10
2019-02-14T15:52:37.531Z,49.12
2019-02-14T15:55:07.394Z,49.16
2019-02-14T15:57:35.792Z,49.13
2019-02-14T16:00:09.639Z,49.32
2019-02-14T16:02:36.485Z,49.43
2019-02-14T16:05:06.014Z,49.69
2019-02-14T16:07:34.423Z,49.91
2019-02-14T16:10:03.780Z,50.00
2019-02-14T16:12:33.144Z,50.08
2019-02-14T16:15:01.551Z,50.24
2019-02-14T16:17:30.009Z,50.36
2019-02-14T16:19:59.742Z,50.29
2019-02-14T16:22:30.136Z,50.33
2019-02-14T16:24:58.364Z,50.54
2019-02-14T16:27:26.987Z,50.82
2019-02-14T16:29:55.409Z,51.08
2019-02-14T16:32:23.880Z,51.29
2019-02-14T16:34:52.280Z,51.42
2019-02-14T16:37:20.676Z,51.68
2019-02-14T16:39:51.894Z,52.01
2019-02-14T16:42:19.228Z,52.28
2019-02-14T16:44:47.620Z,52.43
2019-02-14T16:47:16.134Z,52.62
2019-02-14T16:49:44.528Z,53.01
2019-02-14T16:52:12.923Z,53.25
2019-02-14T16:54:41.711Z,53.43
2019-02-14T16:57:10.181Z,53.59
2019-02-14T16:59:38.605Z,53.84
2019-02-14T17:02:07.142Z,54.16
2019-02-14T17:04:35.532Z,54.27
2019-02-14T17:07:03.933Z,54.36
2019-02-14T17:09:32.380Z,54.63
2019-02-14T17:12:00.793Z,54.80
2019-02-14T17:14:29.260Z,54.96
2019-02-14T17:16:58.115Z,55.17
2019-02-14T17:19:28.225Z,55.37
2019-02-14T17:21:56.634Z,55.53
2019-02-14T17:24:25.257Z,55.61
2019-02-14T17:26:53.650Z,55.74
2019-02-14T17:29:22.048Z,55.81
2019-02-14T17:31:50.685Z,55.87
2019-02-14T17:34:19.058Z,56.06
2019-02-14T17:36:47.449Z,56.22
2019-02-14T17:39:15.977Z,56.49
2019-02-14T17:41:44.385Z,56.66
2019-02-14T17:44:12.780Z,56.81
2019-02-14T17:46:41.259Z,57.21
2019-02-14T17:49:09.689Z,57.45
2019-02-14T17:51:38.088Z,57.58
2019-02-14T17:54:06.552Z,57.67
2019-02-14T17:56:34.943Z,57.72
2019-02-14T17:59:03.335Z,57.83
2019-02-14T18:01:31.998Z,57.94
2019-02-14T18:04:00.400Z,58.17
2019-02-14T18:06:28.799Z,58.29
2019-02-14T18:08:57.222Z,58.49
2019-02-14T18:11:25.617Z,58.77
2019-02-14T18:13:54.029Z,58.94
2019-02-14T18:16:22.455Z,59.22
2019-02-14T18:18:50.853Z,59.50
2019-02-14T18:21:19.247Z,59.70
2019-02-14T18:23:48.023Z,59.88
2019-02-14T18:26:16.425Z,60.11
2019-02-14T18:28:44.834Z,60.35
2019-02-14T18:31:13.360Z,60.63
2019-02-14T18:33:41.763Z,60.78
2019-02-14T18:36:10.161Z,61.04
2019-02-14T18:38:38.811Z,61.19
2019-02-14T18:41:07.203Z,61.06
2019-02-14T18:43:35.598Z,61.09
2019-02-14T18:46:04.146Z,61.20
2019-02-14T18:48:32.581Z,61.41
2019-02-14T18:51:00.982Z,61.60
2019-02-14T18:53:29.411Z,61.67
2019-02-14T18:55:57.823Z,61.85
2019-02-14T18:58:26.823Z,61.90
2019-02-14T19:00:55.439Z,61.90
2019-02-14T19:03:23.841Z,61.94
2019-02-14T19:05:52.259Z,62.08
2019-02-14T19:08:20.712Z,62.15
2019-02-14T19:10:49.135Z,62.24
2019-02-14T19:13:18.893Z,62.29
2019-02-14T19:15:47.662Z,62.26
2019-02-14T19:18:16.049Z,62.30
2019-02-14T19:20:44.418Z,62.25
2019-02-14T19:23:23.522Z,62.11
2019-02-14T19:25:43.245Z,62.17
2019-02-14T19:28:11.641Z,62.17
2019-02-14T19:30:40.169Z,62.33
2019-02-14T19:33:08.633Z,62.47
2019-02-14T19:35:37.042Z,62.63
2019-02-14T19:38:05.621Z,62.61
2019-02-14T19:40:34.030Z,62.79
2019-02-14T19:43:04.772Z,62.94
2019-02-14T19:45:36.660Z,62.92
2019-02-14T19:48:03.331Z,62.93
2019-02-14T19:50:31.731Z,62.79
2019-02-14T19:53:00.259Z,62.89
2019-02-14T19:55:28.646Z,62.90
2019-02-14T19:57:57.034Z,63.02
2019-02-14T20:00:25.622Z,63.06
2019-02-14T20:02:54.020Z,63.14
2019-02-14T20:05:22.420Z,63.11
2019-02-14T20:07:51.330Z,63.34
2019-02-14T20:10:19.776Z,63.47
2019-02-14T20:12:48.241Z,63.71
2019-02-14T20:15:20.618Z,63.92
2019-02-14T20:17:49.010Z,64.35
2019-02-14T20:20:17.419Z,64.62
2019-02-14T20:22:46.056Z,64.77
2019-02-14T20:25:23.381Z,64.94
2019-02-14T20:27:51.814Z,65.16
2019-02-14T20:30:20.220Z,65.03
2019-02-14T20:32:48.608Z,65.16
2019-02-14T20:35:17.166Z,65.33
2019-02-14T20:37:47.108Z,65.65
2019-02-14T20:40:15.564Z,65.82
2019-02-14T20:42:43.990Z,65.86
2019-02-14T20:45:14.028Z,66.05
2019-02-14T20:47:42.443Z,66.18
2019-02-14T20:50:12.879Z,66.29
2019-02-14T20:52:41.506Z,66.38
2019-02-14T20:55:18.719Z,66.52
2019-02-14T20:57:47.202Z,66.54
2019-02-14T21:00:27.263Z,66.52
2019-02-14T21:02:55.702Z,66.65
2019-02-14T21:05:24.069Z,66.70
2019-02-14T21:07:52.480Z,66.81
2019-02-14T21:10:20.925Z,66.83
2019-02-14T21:12:49.341Z,66.67
2019-02-14T21:15:17.830Z,66.61
2019-02-14T21:17:46.233Z,66.49
2019-02-14T21:20:15.874Z,66.39
2019-02-14T21:22:44.623Z,66.51
2019-02-14T21:25:13.377Z,66.61
2019-02-14T21:27:41.750Z,66.67
2019-02-14T21:30:18.501Z,66.68
2019-02-14T21:32:47.134Z,66.73
2019-02-14T21:35:15.721Z,66.55
2019-02-14T21:37:44.277Z,66.40
2019-02-14T21:40:14.980Z,66.33
2019-02-14T21:42:43.357Z,66.33
2019-02-14T21:45:16.302Z,66.25
2019-02-14T21:47:44.710Z,66.29
2019-02-14T21:50:14.549Z,66.32
2019-02-14T21:52:43.022Z,66.42
2019-02-14T21:55:12.948Z,66.42
2019-02-14T21:57:41.499Z,66.52
2019-02-14T22:00:27.355Z,66.55
2019-02-14T22:02:55.765Z,66.73
2019-02-14T22:05:25.990Z,66.74
2019-02-14T22:07:54.457Z,66.96
2019-02-14T22:10:22.996Z,67.07
2019-02-14T22:12:51.382Z,67.04
2019-02-14T22:15:30.050Z,66.97
2019-02-14T22:17:58.419Z,67.06
2019-02-14T22:20:26.820Z,67.00
2019-02-14T22:22:55.244Z,67.07
2019-02-14T22:25:23.660Z,67.11
2019-02-14T22:27:52.707Z,67.22
2019-02-14T22:30:21.314Z,67.38
2019-02-14T22:32:49.737Z,67.50
2019-02-14T22:35:18.126Z,67.62
2019-02-14T22:37:46.546Z,67.60
2019-02-14T22:40:15.018Z,67.48
2019-02-14T22:42:47.336Z,67.14
2019-02-14T22:45:14.639Z,67.27
2019-02-14T22:47:44.669Z,67.40
2019-02-14T22:50:13.513Z,67.40
2019-02-14T22:52:42.362Z,67.37
2019-02-14T22:55:15.335Z,67.46
2019-02-14T22:57:43.873Z,67.62
2019-02-14T23:00:29.215Z,67.57
2019-02-14T23:02:57.590Z,67.58
2019-02-14T23:05:25.989Z,67.40
2019-02-14T23:07:54.417Z,67.43
2019-02-14T23:10:22.806Z,67.56
2019-02-14T23:12:55.610Z,67.68
2019-02-14T23:15:21.431Z,67.85
2019-02-14T23:17:49.827Z,68.05
2019-02-14T23:20:18.303Z,68.31
2019-02-14T23:22:46.719Z,68.44
2019-02-14T23:25:15.212Z,68.52
2019-02-14T23:27:43.601Z,68.65
2019-02-14T23:30:13.159Z,68.71
2019-02-14T23:32:41.561Z,68.81
2019-02-14T23:35:10.013Z,68.94
2019-02-14T23:37:38.542Z,69.04
2019-02-14T23:40:07.595Z,69.00
2019-02-14T23:42:36.012Z,69.04
2019-02-14T23:45:06.455Z,69.05
2019-02-14T23:47:34.857Z,69.09
2019-02-14T23:50:04.199Z,69.08
2019-02-14T23:52:32.821Z,69.10
2019-02-14T23:55:01.219Z,69.20
2019-02-14T23:57:29.617Z,69.32
2019-02-14T23:59:58.057Z,69.48
